sensor_id;sensor_type;location;lat;lon;timestamp;P1;durP1;ratioP1;P2;durP2;ratioP2
67979;SDS011;54760;47.490;19.030;2022-08-02T00:02:11;3.75;;;2.62;;
67979;SDS011;54760;47.490;19.030;2022-08-02T00:04:36;3.50;;;2.40;;
67979;SDS011;54760;47.490;19.030;2022-08-02T00:07:03;3.62;;;2.47;;
67979;SDS011;54760;47.490;19.030;2022-08-02T00:09:28;2.85;;;2.55;;
67979;SDS011;54760;47.490;19.030;2022-08-02T00:11:54;2.92;;;2.65;;
67979;SDS011;54760;47.490;19.030;2022-08-02T00:14:19;3.58;;;2.80;;
67979;SDS011;54760;47.490;19.030;2022-08-02T00:16:44;2.87;;;2.58;;
67979;SDS011;54760;47.490;19.030;2022-08-02T00:19:10;4.65;;;2.50;;
67979;SDS011;54760;47.490;19.030;2022-08-02T00:21:35;4.93;;;2.60;;
67979;SDS011;54760;47.490;19.030;2022-08-02T00:24:01;3.12;;;2.42;;
67979;SDS011;54760;47.490;19.030;2022-08-02T00:26:26;3.22;;;2.78;;
67979;SDS011;54760;47.490;19.030;2022-08-02T00:28:52;6.57;;;2.60;;
67979;SDS011;54760;47.490;19.030;2022-08-02T00:31:17;3.50;;;2.25;;
67979;SDS011;54760;47.490;19.030;2022-08-02T00:33:42;4.10;;;2.70;;
67979;SDS011;54760;47.490;19.030;2022-08-02T00:36:08;5.37;;;2.40;;
67979;SDS011;54760;47.490;19.030;2022-08-02T00:38:33;3.67;;;2.80;;
67979;SDS011;54760;47.490;19.030;2022-08-02T00:40:59;3.10;;;2.20;;
67979;SDS011;54760;47.490;19.030;2022-08-02T00:43:24;4.47;;;2.70;;
67979;SDS011;54760;47.490;19.030;2022-08-02T00:45:49;3.47;;;2.58;;
67979;SDS011;54760;47.490;19.030;2022-08-02T00:48:15;3.47;;;2.72;;
67979;SDS011;54760;47.490;19.030;2022-08-02T00:50:40;4.57;;;2.90;;
67979;SDS011;54760;47.490;19.030;2022-08-02T00:53:06;4.75;;;2.58;;
67979;SDS011;54760;47.490;19.030;2022-08-02T00:55:35;3.45;;;2.92;;
67979;SDS011;54760;47.490;19.030;2022-08-02T00:58:03;3.30;;;2.97;;
67979;SDS011;54760;47.490;19.030;2022-08-02T01:00:29;4.37;;;2.78;;
67979;SDS011;54760;47.490;19.030;2022-08-02T01:02:54;4.57;;;2.70;;
67979;SDS011;54760;47.490;19.030;2022-08-02T01:05:19;2.95;;;2.55;;
67979;SDS011;54760;47.490;19.030;2022-08-02T01:07:45;2.97;;;2.60;;
67979;SDS011;54760;47.490;19.030;2022-08-02T01:10:10;3.90;;;2.47;;
67979;SDS011;54760;47.490;19.030;2022-08-02T01:12:36;4.82;;;2.65;;
67979;SDS011;54760;47.490;19.030;2022-08-02T01:15:03;2.87;;;2.60;;
67979;SDS011;54760;47.490;19.030;2022-08-02T01:20:24;4.28;;;2.50;;
67979;SDS011;54760;47.490;19.030;2022-08-02T01:29:03;5.55;;;2.70;;
67979;SDS011;54760;47.490;19.030;2022-08-02T01:32:34;4.35;;;2.67;;
67979;SDS011;54760;47.490;19.030;2022-08-02T01:34:47;3.67;;;2.47;;
67979;SDS011;54760;47.490;19.030;2022-08-02T01:40:13;4.37;;;2.90;;
67979;SDS011;54760;47.490;19.030;2022-08-02T01:42:46;3.50;;;2.67;;
67979;SDS011;54760;47.490;19.030;2022-08-02T01:45:15;4.25;;;2.83;;
67979;SDS011;54760;47.490;19.030;2022-08-02T01:47:43;4.82;;;2.60;;
67979;SDS011;54760;47.490;19.030;2022-08-02T01:50:12;3.28;;;2.80;;
67979;SDS011;54760;47.490;19.030;2022-08-02T01:52:41;4.55;;;2.78;;
67979;SDS011;54760;47.490;19.030;2022-08-02T01:55:13;5.30;;;2.65;;
67979;SDS011;54760;47.490;19.030;2022-08-02T01:57:49;7.68;;;3.10;;
67979;SDS011;54760;47.490;19.030;2022-08-02T02:00:19;3.12;;;2.70;;
67979;SDS011;54760;47.490;19.030;2022-08-02T02:02:47;3.90;;;2.75;;
67979;SDS011;54760;47.490;19.030;2022-08-02T02:05:14;3.97;;;2.90;;
67979;SDS011;54760;47.490;19.030;2022-08-02T02:07:43;5.95;;;3.10;;
67979;SDS011;54760;47.490;19.030;2022-08-02T02:10:11;3.50;;;2.70;;
67979;SDS011;54760;47.490;19.030;2022-08-02T02:12:39;4.05;;;2.70;;
67979;SDS011;54760;47.490;19.030;2022-08-02T02:15:08;3.35;;;2.75;;
67979;SDS011;54760;47.490;19.030;2022-08-02T02:17:35;5.75;;;3.00;;
67979;SDS011;54760;47.490;19.030;2022-08-02T02:20:02;4.10;;;2.97;;
67979;SDS011;54760;47.490;19.030;2022-08-02T02:22:28;3.37;;;2.83;;
67979;SDS011;54760;47.490;19.030;2022-08-02T02:24:54;5.18;;;2.60;;
67979;SDS011;54760;47.490;19.030;2022-08-02T02:27:19;4.62;;;2.83;;
67979;SDS011;54760;47.490;19.030;2022-08-02T02:29:48;3.30;;;2.60;;
67979;SDS011;54760;47.490;19.030;2022-08-02T02:32:16;4.00;;;3.00;;
67979;SDS011;54760;47.490;19.030;2022-08-02T02:34:43;4.35;;;2.80;;
67979;SDS011;54760;47.490;19.030;2022-08-02T02:37:16;5.82;;;2.78;;
67979;SDS011;54760;47.490;19.030;2022-08-02T02:39:44;5.37;;;3.30;;
67979;SDS011;54760;47.490;19.030;2022-08-02T02:42:12;4.15;;;2.90;;
67979;SDS011;54760;47.490;19.030;2022-08-02T02:44:39;3.42;;;3.08;;
67979;SDS011;54760;47.490;19.030;2022-08-02T02:47:06;3.45;;;2.78;;
67979;SDS011;54760;47.490;19.030;2022-08-02T02:49:34;3.90;;;3.00;;
67979;SDS011;54760;47.490;19.030;2022-08-02T02:52:01;3.80;;;2.97;;
67979;SDS011;54760;47.490;19.030;2022-08-02T02:54:29;3.33;;;2.90;;
67979;SDS011;54760;47.490;19.030;2022-08-02T02:56:57;3.67;;;2.70;;
67979;SDS011;54760;47.490;19.030;2022-08-02T02:59:24;5.05;;;2.95;;
67979;SDS011;54760;47.490;19.030;2022-08-02T03:01:50;4.87;;;3.10;;
67979;SDS011;54760;47.490;19.030;2022-08-02T03:04:17;4.37;;;2.92;;
67979;SDS011;54760;47.490;19.030;2022-08-02T03:06:43;3.55;;;3.00;;
67979;SDS011;54760;47.490;19.030;2022-08-02T03:09:09;4.90;;;2.90;;
67979;SDS011;54760;47.490;19.030;2022-08-02T03:11:35;4.62;;;2.83;;
67979;SDS011;54760;47.490;19.030;2022-08-02T03:14:02;5.20;;;3.00;;
67979;SDS011;54760;47.490;19.030;2022-08-02T03:16:28;4.05;;;3.12;;
67979;SDS011;54760;47.490;19.030;2022-08-02T03:18:55;5.30;;;3.15;;
67979;SDS011;54760;47.490;19.030;2022-08-02T03:21:21;4.37;;;3.03;;
67979;SDS011;54760;47.490;19.030;2022-08-02T03:23:47;3.28;;;2.97;;
67979;SDS011;54760;47.490;19.030;2022-08-02T03:26:13;4.47;;;2.90;;
67979;SDS011;54760;47.490;19.030;2022-08-02T03:28:39;3.72;;;2.78;;
67979;SDS011;54760;47.490;19.030;2022-08-02T03:31:05;5.45;;;3.22;;
67979;SDS011;54760;47.490;19.030;2022-08-02T03:33:31;7.75;;;2.90;;
67979;SDS011;54760;47.490;19.030;2022-08-02T03:35:58;5.72;;;3.00;;
67979;SDS011;54760;47.490;19.030;2022-08-02T03:38:27;5.50;;;3.25;;
67979;SDS011;54760;47.490;19.030;2022-08-02T03:40:56;5.93;;;3.10;;
67979;SDS011;54760;47.490;19.030;2022-08-02T03:43:25;10.00;;;6.00;;
67979;SDS011;54760;47.490;19.030;2022-08-02T03:45:51;5.00;;;3.67;;
67979;SDS011;54760;47.490;19.030;2022-08-02T03:48:18;3.40;;;2.95;;
67979;SDS011;54760;47.490;19.030;2022-08-02T03:50:44;4.05;;;3.15;;
67979;SDS011;54760;47.490;19.030;2022-08-02T03:53:12;4.22;;;3.35;;
67979;SDS011;54760;47.490;19.030;2022-08-02T03:55:40;4.35;;;3.12;;
67979;SDS011;54760;47.490;19.030;2022-08-02T03:58:05;4.07;;;2.90;;
67979;SDS011;54760;47.490;19.030;2022-08-02T04:00:31;4.30;;;3.28;;
67979;SDS011;54760;47.490;19.030;2022-08-02T04:02:57;7.57;;;3.33;;
67979;SDS011;54760;47.490;19.030;2022-08-02T04:05:23;7.15;;;3.40;;
67979;SDS011;54760;47.490;19.030;2022-08-02T04:07:49;3.30;;;2.92;;
67979;SDS011;54760;47.490;19.030;2022-08-02T04:10:15;3.70;;;3.08;;
67979;SDS011;54760;47.490;19.030;2022-08-02T04:12:41;5.10;;;3.05;;
67979;SDS011;54760;47.490;19.030;2022-08-02T04:15:06;3.47;;;3.17;;
67979;SDS011;54760;47.490;19.030;2022-08-02T04:17:35;3.35;;;2.97;;
67979;SDS011;54760;47.490;19.030;2022-08-02T04:20:06;5.45;;;3.12;;
67979;SDS011;54760;47.490;19.030;2022-08-02T04:22:36;4.20;;;3.58;;
67979;SDS011;54760;47.490;19.030;2022-08-02T04:25:05;4.87;;;3.50;;
67979;SDS011;54760;47.490;19.030;2022-08-02T04:27:33;4.57;;;3.25;;
67979;SDS011;54760;47.490;19.030;2022-08-02T04:30:01;4.12;;;3.15;;
67979;SDS011;54760;47.490;19.030;2022-08-02T04:32:28;5.55;;;3.25;;
67979;SDS011;54760;47.490;19.030;2022-08-02T04:34:55;4.20;;;3.15;;
67979;SDS011;54760;47.490;19.030;2022-08-02T04:37:21;5.03;;;3.45;;
67979;SDS011;54760;47.490;19.030;2022-08-02T04:39:46;5.00;;;3.30;;
67979;SDS011;54760;47.490;19.030;2022-08-02T04:42:22;5.30;;;3.22;;
67979;SDS011;54760;47.490;19.030;2022-08-02T04:44:48;6.37;;;3.12;;
67979;SDS011;54760;47.490;19.030;2022-08-02T04:47:15;5.68;;;3.12;;
67979;SDS011;54760;47.490;19.030;2022-08-02T04:49:41;3.78;;;3.35;;
67979;SDS011;54760;47.490;19.030;2022-08-02T04:52:06;5.75;;;3.08;;
67979;SDS011;54760;47.490;19.030;2022-08-02T04:54:32;4.85;;;3.53;;
67979;SDS011;54760;47.490;19.030;2022-08-02T04:56:57;4.85;;;3.20;;
67979;SDS011;54760;47.490;19.030;2022-08-02T04:59:23;3.78;;;3.00;;
67979;SDS011;54760;47.490;19.030;2022-08-02T05:01:48;3.90;;;3.50;;
67979;SDS011;54760;47.490;19.030;2022-08-02T05:04:14;7.03;;;3.42;;
67979;SDS011;54760;47.490;19.030;2022-08-02T05:06:39;7.95;;;3.35;;
67979;SDS011;54760;47.490;19.030;2022-08-02T05:09:04;4.97;;;3.40;;
67979;SDS011;54760;47.490;19.030;2022-08-02T05:11:30;4.22;;;3.30;;
67979;SDS011;54760;47.490;19.030;2022-08-02T05:13:55;3.78;;;2.90;;
67979;SDS011;54760;47.490;19.030;2022-08-02T05:16:21;4.72;;;3.22;;
67979;SDS011;54760;47.490;19.030;2022-08-02T05:18:46;5.15;;;3.50;;
67979;SDS011;54760;47.490;19.030;2022-08-02T05:21:11;3.83;;;2.85;;
67979;SDS011;54760;47.490;19.030;2022-08-02T05:23:37;5.03;;;2.92;;
67979;SDS011;54760;47.490;19.030;2022-08-02T05:26:02;4.72;;;3.15;;
67979;SDS011;54760;47.490;19.030;2022-08-02T05:28:28;9.52;;;3.80;;
67979;SDS011;54760;47.490;19.030;2022-08-02T05:30:53;4.68;;;2.95;;
67979;SDS011;54760;47.490;19.030;2022-08-02T05:33:18;3.42;;;3.05;;
67979;SDS011;54760;47.490;19.030;2022-08-02T05:35:44;7.55;;;3.30;;
67979;SDS011;54760;47.490;19.030;2022-08-02T05:38:09;6.28;;;3.15;;
67979;SDS011;54760;47.490;19.030;2022-08-02T05:40:35;5.45;;;2.90;;
67979;SDS011;54760;47.490;19.030;2022-08-02T05:43:00;5.53;;;3.33;;
67979;SDS011;54760;47.490;19.030;2022-08-02T05:45:26;5.37;;;4.87;;
67979;SDS011;54760;47.490;19.030;2022-08-02T05:47:51;5.85;;;2.80;;
67979;SDS011;54760;47.490;19.030;2022-08-02T05:50:17;7.28;;;3.42;;
67979;SDS011;54760;47.490;19.030;2022-08-02T05:55:11;6.05;;;3.17;;
67979;SDS011;54760;47.490;19.030;2022-08-02T05:57:49;5.57;;;3.05;;
67979;SDS011;54760;47.490;19.030;2022-08-02T06:00:17;4.95;;;3.20;;
67979;SDS011;54760;47.490;19.030;2022-08-02T06:03:03;17.35;;;4.43;;
67979;SDS011;54760;47.490;19.030;2022-08-02T06:05:41;4.22;;;2.70;;
67979;SDS011;54760;47.490;19.030;2022-08-02T06:08:38;6.80;;;3.45;;
67979;SDS011;54760;47.490;19.030;2022-08-02T06:11:07;7.40;;;2.97;;
67979;SDS011;54760;47.490;19.030;2022-08-02T06:13:39;7.12;;;2.92;;
67979;SDS011;54760;47.490;19.030;2022-08-02T06:16:05;7.90;;;2.90;;
67979;SDS011;54760;47.490;19.030;2022-08-02T06:18:31;3.75;;;2.58;;
67979;SDS011;54760;47.490;19.030;2022-08-02T06:20:59;7.32;;;3.30;;
67979;SDS011;54760;47.490;19.030;2022-08-02T06:23:27;6.85;;;3.22;;
67979;SDS011;54760;47.490;19.030;2022-08-02T06:25:53;8.25;;;3.10;;
67979;SDS011;54760;47.490;19.030;2022-08-02T06:28:20;9.55;;;3.30;;
67979;SDS011;54760;47.490;19.030;2022-08-02T06:30:47;10.63;;;3.92;;
67979;SDS011;54760;47.490;19.030;2022-08-02T06:33:13;12.35;;;3.90;;
67979;SDS011;54760;47.490;19.030;2022-08-02T06:35:49;6.68;;;3.58;;
67979;SDS011;54760;47.490;19.030;2022-08-02T06:38:21;15.38;;;4.07;;
67979;SDS011;54760;47.490;19.030;2022-08-02T06:45:53;5.30;;;2.92;;
67979;SDS011;54760;47.490;19.030;2022-08-02T06:48:18;8.15;;;3.15;;
67979;SDS011;54760;47.490;19.030;2022-08-02T06:50:44;5.12;;;3.28;;
67979;SDS011;54760;47.490;19.030;2022-08-02T06:53:09;6.12;;;3.42;;
67979;SDS011;54760;47.490;19.030;2022-08-02T06:55:36;5.65;;;3.33;;
67979;SDS011;54760;47.490;19.030;2022-08-02T06:58:01;5.15;;;2.83;;
67979;SDS011;54760;47.490;19.030;2022-08-02T07:00:28;4.45;;;3.12;;
67979;SDS011;54760;47.490;19.030;2022-08-02T07:02:55;10.25;;;3.22;;
67979;SDS011;54760;47.490;19.030;2022-08-02T07:05:20;10.35;;;3.72;;
67979;SDS011;54760;47.490;19.030;2022-08-02T07:07:46;8.45;;;4.00;;
67979;SDS011;54760;47.490;19.030;2022-08-02T07:10:12;4.82;;;2.70;;
67979;SDS011;54760;47.490;19.030;2022-08-02T07:12:38;3.40;;;2.80;;
67979;SDS011;54760;47.490;19.030;2022-08-02T07:15:05;10.43;;;3.30;;
67979;SDS011;54760;47.490;19.030;2022-08-02T07:17:32;6.60;;;3.20;;
67979;SDS011;54760;47.490;19.030;2022-08-02T07:19:58;4.43;;;2.90;;
67979;SDS011;54760;47.490;19.030;2022-08-02T07:22:25;4.60;;;3.15;;
67979;SDS011;54760;47.490;19.030;2022-08-02T07:24:51;4.47;;;2.58;;
67979;SDS011;54760;47.490;19.030;2022-08-02T07:27:17;6.00;;;2.90;;
67979;SDS011;54760;47.490;19.030;2022-08-02T07:29:43;8.73;;;3.12;;
67979;SDS011;54760;47.490;19.030;2022-08-02T07:32:09;8.02;;;3.20;;
67979;SDS011;54760;47.490;19.030;2022-08-02T07:34:34;3.70;;;2.58;;
67979;SDS011;54760;47.490;19.030;2022-08-02T07:36:59;7.20;;;3.12;;
67979;SDS011;54760;47.490;19.030;2022-08-02T07:39:25;3.90;;;2.95;;
67979;SDS011;54760;47.490;19.030;2022-08-02T07:41:51;3.15;;;2.83;;
67979;SDS011;54760;47.490;19.030;2022-08-02T07:44:17;4.07;;;2.60;;
67979;SDS011;54760;47.490;19.030;2022-08-02T07:46:43;4.55;;;3.12;;
67979;SDS011;54760;47.490;19.030;2022-08-02T07:49:09;9.70;;;3.60;;
67979;SDS011;54760;47.490;19.030;2022-08-02T07:51:34;10.60;;;3.33;;
67979;SDS011;54760;47.490;19.030;2022-08-02T07:54:00;8.35;;;3.15;;
67979;SDS011;54760;47.490;19.030;2022-08-02T07:56:26;19.42;;;3.80;;
67979;SDS011;54760;47.490;19.030;2022-08-02T07:58:52;5.03;;;2.90;;
67979;SDS011;54760;47.490;19.030;2022-08-02T08:01:18;16.83;;;3.75;;
67979;SDS011;54760;47.490;19.030;2022-08-02T08:03:43;10.73;;;3.12;;
67979;SDS011;54760;47.490;19.030;2022-08-02T08:06:09;8.57;;;3.10;;
67979;SDS011;54760;47.490;19.030;2022-08-02T08:08:35;8.60;;;3.42;;
67979;SDS011;54760;47.490;19.030;2022-08-02T08:11:00;6.87;;;3.00;;
67979;SDS011;54760;47.490;19.030;2022-08-02T08:13:26;16.50;;;4.87;;
67979;SDS011;54760;47.490;19.030;2022-08-02T08:15:51;13.88;;;4.82;;
67979;SDS011;54760;47.490;19.030;2022-08-02T08:18:16;31.52;;;5.70;;
67979;SDS011;54760;47.490;19.030;2022-08-02T08:20:42;15.35;;;4.37;;
67979;SDS011;54760;47.490;19.030;2022-08-02T08:23:07;12.27;;;4.32;;
67979;SDS011;54760;47.490;19.030;2022-08-02T08:25:33;10.57;;;3.37;;
67979;SDS011;54760;47.490;19.030;2022-08-02T08:27:58;8.20;;;3.50;;
67979;SDS011;54760;47.490;19.030;2022-08-02T08:30:24;9.63;;;3.53;;
67979;SDS011;54760;47.490;19.030;2022-08-02T08:32:49;17.37;;;4.12;;
67979;SDS011;54760;47.490;19.030;2022-08-02T08:35:15;8.40;;;3.30;;
67979;SDS011;54760;47.490;19.030;2022-08-02T08:37:40;8.10;;;3.50;;
67979;SDS011;54760;47.490;19.030;2022-08-02T08:40:06;4.85;;;2.83;;
67979;SDS011;54760;47.490;19.030;2022-08-02T08:42:34;7.68;;;3.33;;
67979;SDS011;54760;47.490;19.030;2022-08-02T08:45:00;5.18;;;3.20;;
67979;SDS011;54760;47.490;19.030;2022-08-02T08:47:29;8.70;;;3.37;;
67979;SDS011;54760;47.490;19.030;2022-08-02T08:49:58;6.03;;;3.20;;
67979;SDS011;54760;47.490;19.030;2022-08-02T08:52:27;15.82;;;3.55;;
67979;SDS011;54760;47.490;19.030;2022-08-02T08:54:55;4.85;;;2.78;;
67979;SDS011;54760;47.490;19.030;2022-08-02T08:57:21;3.45;;;2.87;;
67979;SDS011;54760;47.490;19.030;2022-08-02T08:59:47;3.20;;;2.80;;
67979;SDS011;54760;47.490;19.030;2022-08-02T09:02:12;6.95;;;3.12;;
67979;SDS011;54760;47.490;19.030;2022-08-02T09:04:37;7.62;;;2.75;;
67979;SDS011;54760;47.490;19.030;2022-08-02T09:07:03;5.18;;;2.67;;
67979;SDS011;54760;47.490;19.030;2022-08-02T09:09:28;5.82;;;3.08;;
67979;SDS011;54760;47.490;19.030;2022-08-02T09:11:54;6.40;;;3.15;;
67979;SDS011;54760;47.490;19.030;2022-08-02T09:14:36;5.70;;;2.58;;
67979;SDS011;54760;47.490;19.030;2022-08-02T09:17:05;7.15;;;2.80;;
67979;SDS011;54760;47.490;19.030;2022-08-02T09:19:36;3.65;;;2.55;;
67979;SDS011;54760;47.490;19.030;2022-08-02T09:22:03;6.55;;;2.62;;
67979;SDS011;54760;47.490;19.030;2022-08-02T09:24:39;4.00;;;2.37;;
67979;SDS011;54760;47.490;19.030;2022-08-02T09:27:13;6.22;;;2.65;;
67979;SDS011;54760;47.490;19.030;2022-08-02T09:29:47;3.35;;;2.30;;
67979;SDS011;54760;47.490;19.030;2022-08-02T09:32:13;6.87;;;2.53;;
67979;SDS011;54760;47.490;19.030;2022-08-02T09:37:27;4.87;;;2.70;;
67979;SDS011;54760;47.490;19.030;2022-08-02T09:39:55;10.02;;;3.05;;
67979;SDS011;54760;47.490;19.030;2022-08-02T09:42:24;6.70;;;2.72;;
67979;SDS011;54760;47.490;19.030;2022-08-02T09:44:59;5.10;;;2.40;;
67979;SDS011;54760;47.490;19.030;2022-08-02T09:47:27;4.40;;;2.87;;
67979;SDS011;54760;47.490;19.030;2022-08-02T09:49:54;5.25;;;2.83;;
67979;SDS011;54760;47.490;19.030;2022-08-02T09:52:30;7.57;;;2.62;;
67979;SDS011;54760;47.490;19.030;2022-08-02T09:55:05;4.80;;;2.30;;
67979;SDS011;54760;47.490;19.030;2022-08-02T09:57:32;9.23;;;2.50;;
67979;SDS011;54760;47.490;19.030;2022-08-02T09:59:57;4.25;;;2.60;;
67979;SDS011;54760;47.490;19.030;2022-08-02T10:02:23;4.05;;;2.25;;
67979;SDS011;54760;47.490;19.030;2022-08-02T10:04:49;4.82;;;2.50;;
67979;SDS011;54760;47.490;19.030;2022-08-02T10:07:15;3.17;;;2.58;;
67979;SDS011;54760;47.490;19.030;2022-08-02T10:09:41;6.05;;;2.30;;
67979;SDS011;54760;47.490;19.030;2022-08-02T10:12:09;4.97;;;2.40;;
67979;SDS011;54760;47.490;19.030;2022-08-02T10:14:36;2.72;;;2.10;;
67979;SDS011;54760;47.490;19.030;2022-08-02T10:17:01;2.28;;;1.80;;
67979;SDS011;54760;47.490;19.030;2022-08-02T10:19:29;3.67;;;2.15;;
67979;SDS011;54760;47.490;19.030;2022-08-02T10:21:55;5.90;;;2.20;;
67979;SDS011;54760;47.490;19.030;2022-08-02T10:24:27;4.93;;;2.10;;
67979;SDS011;54760;47.490;19.030;2022-08-02T10:26:54;2.60;;;1.87;;
67979;SDS011;54760;47.490;19.030;2022-08-02T10:29:26;4.47;;;1.85;;
67979;SDS011;54760;47.490;19.030;2022-08-02T10:31:56;2.10;;;1.90;;
67979;SDS011;54760;47.490;19.030;2022-08-02T10:34:28;2.83;;;2.10;;
67979;SDS011;54760;47.490;19.030;2022-08-02T10:37:00;9.73;;;2.08;;
67979;SDS011;54760;47.490;19.030;2022-08-02T10:39:27;4.12;;;1.90;;
67979;SDS011;54760;47.490;19.030;2022-08-02T10:42:02;6.40;;;2.17;;
67979;SDS011;54760;47.490;19.030;2022-08-02T10:44:29;2.62;;;1.98;;
67979;SDS011;54760;47.490;19.030;2022-08-02T10:47:17;3.87;;;2.05;;
67979;SDS011;54760;47.490;19.030;2022-08-02T10:52:27;3.67;;;2.10;;
67979;SDS011;54760;47.490;19.030;2022-08-02T10:57:27;6.95;;;2.40;;
67979;SDS011;54760;47.490;19.030;2022-08-02T11:00:00;3.08;;;2.00;;
67979;SDS011;54760;47.490;19.030;2022-08-02T11:02:40;2.87;;;2.33;;
67979;SDS011;54760;47.490;19.030;2022-08-02T11:05:15;10.02;;;2.30;;
67979;SDS011;54760;47.490;19.030;2022-08-02T11:07:46;3.67;;;2.45;;
67979;SDS011;54760;47.490;19.030;2022-08-02T11:13:03;10.25;;;2.80;;
67979;SDS011;54760;47.490;19.030;2022-08-02T11:15:48;4.03;;;2.00;;
67979;SDS011;54760;47.490;19.030;2022-08-02T11:18:17;3.00;;;1.87;;
67979;SDS011;54760;47.490;19.030;2022-08-02T11:20:43;12.00;;;2.92;;
67979;SDS011;54760;47.490;19.030;2022-08-02T11:25:58;5.47;;;2.28;;
67979;SDS011;54760;47.490;19.030;2022-08-02T11:28:23;5.05;;;2.28;;
67979;SDS011;54760;47.490;19.030;2022-08-02T11:30:59;5.32;;;2.17;;
67979;SDS011;54760;47.490;19.030;2022-08-02T11:33:29;6.00;;;2.17;;
67979;SDS011;54760;47.490;19.030;2022-08-02T11:35:59;9.05;;;2.17;;
67979;SDS011;54760;47.490;19.030;2022-08-02T11:38:30;5.72;;;2.15;;
67979;SDS011;54760;47.490;19.030;2022-08-02T11:40:55;4.93;;;2.70;;
67979;SDS011;54760;47.490;19.030;2022-08-02T11:43:21;6.82;;;2.50;;
67979;SDS011;54760;47.490;19.030;2022-08-02T11:45:50;4.65;;;2.20;;
67979;SDS011;54760;47.490;19.030;2022-08-02T11:48:30;3.28;;;2.05;;
67979;SDS011;54760;47.490;19.030;2022-08-02T11:51:03;2.92;;;2.25;;
67979;SDS011;54760;47.490;19.030;2022-08-02T11:53:52;9.32;;;2.78;;
67979;SDS011;54760;47.490;19.030;2022-08-02T11:56:25;6.28;;;2.08;;
67979;SDS011;54760;47.490;19.030;2022-08-02T11:58:59;3.70;;;2.12;;
67979;SDS011;54760;47.490;19.030;2022-08-02T12:01:33;4.97;;;2.20;;
67979;SDS011;54760;47.490;19.030;2022-08-02T12:04:00;4.07;;;2.10;;
67979;SDS011;54760;47.490;19.030;2022-08-02T12:06:26;2.87;;;1.98;;
67979;SDS011;54760;47.490;19.030;2022-08-02T12:11:35;5.20;;;2.35;;
67979;SDS011;54760;47.490;19.030;2022-08-02T12:14:01;4.07;;;2.47;;
67979;SDS011;54760;47.490;19.030;2022-08-02T12:16:37;12.18;;;3.35;;
67979;SDS011;54760;47.490;19.030;2022-08-02T12:19:23;6.33;;;2.70;;
67979;SDS011;54760;47.490;19.030;2022-08-02T12:24:44;2.65;;;2.30;;
67979;SDS011;54760;47.490;19.030;2022-08-02T12:29:58;9.30;;;2.60;;
67979;SDS011;54760;47.490;19.030;2022-08-02T12:32:29;3.45;;;2.17;;
67979;SDS011;54760;47.490;19.030;2022-08-02T12:37:37;13.57;;;2.80;;
67979;SDS011;54760;47.490;19.030;2022-08-02T12:42:47;5.60;;;2.17;;
67979;SDS011;54760;47.490;19.030;2022-08-02T12:45:14;17.08;;;4.47;;
67979;SDS011;54760;47.490;19.030;2022-08-02T12:47:44;7.40;;;2.75;;
67979;SDS011;54760;47.490;19.030;2022-08-02T12:50:18;5.12;;;2.10;;
67979;SDS011;54760;47.490;19.030;2022-08-02T12:52:49;3.87;;;2.17;;
67979;SDS011;54760;47.490;19.030;2022-08-02T12:55:22;4.00;;;2.08;;
67979;SDS011;54760;47.490;19.030;2022-08-02T12:57:54;4.12;;;2.10;;
67979;SDS011;54760;47.490;19.030;2022-08-02T13:00:25;2.80;;;1.98;;
67979;SDS011;54760;47.490;19.030;2022-08-02T13:02:53;3.33;;;1.70;;
67979;SDS011;54760;47.490;19.030;2022-08-02T13:05:19;2.12;;;1.60;;
67979;SDS011;54760;47.490;19.030;2022-08-02T13:07:45;11.85;;;2.25;;
67979;SDS011;54760;47.490;19.030;2022-08-02T13:10:11;2.53;;;1.90;;
67979;SDS011;54760;47.490;19.030;2022-08-02T13:12:36;4.53;;;1.80;;
67979;SDS011;54760;47.490;19.030;2022-08-02T13:15:04;3.72;;;1.87;;
67979;SDS011;54760;47.490;19.030;2022-08-02T13:17:32;2.58;;;1.60;;
67979;SDS011;54760;47.490;19.030;2022-08-02T13:19:57;3.37;;;2.20;;
67979;SDS011;54760;47.490;19.030;2022-08-02T13:22:23;3.08;;;1.80;;
67979;SDS011;54760;47.490;19.030;2022-08-02T13:24:49;6.20;;;2.25;;
67979;SDS011;54760;47.490;19.030;2022-08-02T13:27:15;3.85;;;1.80;;
67979;SDS011;54760;47.490;19.030;2022-08-02T13:29:41;2.80;;;1.62;;
67979;SDS011;54760;47.490;19.030;2022-08-02T13:32:07;2.25;;;1.60;;
67979;SDS011;54760;47.490;19.030;2022-08-02T13:34:33;2.15;;;1.50;;
67979;SDS011;54760;47.490;19.030;2022-08-02T13:36:58;12.20;;;2.45;;
67979;SDS011;54760;47.490;19.030;2022-08-02T13:39:24;6.95;;;1.70;;
67979;SDS011;54760;47.490;19.030;2022-08-02T13:41:49;5.60;;;1.55;;
67979;SDS011;54760;47.490;19.030;2022-08-02T13:44:15;10.75;;;1.87;;
67979;SDS011;54760;47.490;19.030;2022-08-02T13:46:40;3.85;;;1.30;;
67979;SDS011;54760;47.490;19.030;2022-08-02T13:49:05;2.95;;;1.23;;
67979;SDS011;54760;47.490;19.030;2022-08-02T13:51:31;4.82;;;1.30;;
67979;SDS011;54760;47.490;19.030;2022-08-02T13:53:56;2.03;;;1.30;;
67979;SDS011;54760;47.490;19.030;2022-08-02T13:56:22;7.37;;;1.50;;
67979;SDS011;54760;47.490;19.030;2022-08-02T13:58:47;2.15;;;1.30;;
67979;SDS011;54760;47.490;19.030;2022-08-02T14:01:12;2.37;;;1.50;;
67979;SDS011;54760;47.490;19.030;2022-08-02T14:03:38;2.22;;;1.40;;
67979;SDS011;54760;47.490;19.030;2022-08-02T14:06:03;2.20;;;1.42;;
67979;SDS011;54760;47.490;19.030;2022-08-02T14:08:31;3.42;;;1.35;;
67979;SDS011;54760;47.490;19.030;2022-08-02T14:10:56;1.50;;;1.10;;
67979;SDS011;54760;47.490;19.030;2022-08-02T14:13:22;3.00;;;1.30;;
67979;SDS011;54760;47.490;19.030;2022-08-02T14:15:48;2.20;;;1.25;;
67979;SDS011;54760;47.490;19.030;2022-08-02T14:18:14;3.37;;;1.10;;
67979;SDS011;54760;47.490;19.030;2022-08-02T14:20:40;1.62;;;1.08;;
67979;SDS011;54760;47.490;19.030;2022-08-02T14:23:06;3.70;;;1.35;;
67979;SDS011;54760;47.490;19.030;2022-08-02T14:25:32;1.50;;;1.00;;
67979;SDS011;54760;47.490;19.030;2022-08-02T14:27:57;2.03;;;1.00;;
67979;SDS011;54760;47.490;19.030;2022-08-02T14:30:22;2.47;;;1.10;;
67979;SDS011;54760;47.490;19.030;2022-08-02T14:32:48;2.10;;;1.00;;
67979;SDS011;54760;47.490;19.030;2022-08-02T14:35:14;2.10;;;1.12;;
67979;SDS011;54760;47.490;19.030;2022-08-02T14:37:39;2.65;;;1.10;;
67979;SDS011;54760;47.490;19.030;2022-08-02T14:40:05;3.55;;;1.60;;
67979;SDS011;54760;47.490;19.030;2022-08-02T14:42:31;1.37;;;1.10;;
67979;SDS011;54760;47.490;19.030;2022-08-02T14:44:57;1.60;;;1.00;;
67979;SDS011;54760;47.490;19.030;2022-08-02T14:47:22;1.70;;;1.00;;
67979;SDS011;54760;47.490;19.030;2022-08-02T14:49:47;2.78;;;2.20;;
67979;SDS011;54760;47.490;19.030;2022-08-02T14:52:13;2.72;;;1.10;;
67979;SDS011;54760;47.490;19.030;2022-08-02T14:54:39;1.10;;;0.90;;
67979;SDS011;54760;47.490;19.030;2022-08-02T14:57:07;2.22;;;1.20;;
67979;SDS011;54760;47.490;19.030;2022-08-02T14:59:33;1.73;;;0.98;;
67979;SDS011;54760;47.490;19.030;2022-08-02T15:01:58;2.45;;;1.23;;
67979;SDS011;54760;47.490;19.030;2022-08-02T15:04:24;5.07;;;1.60;;
67979;SDS011;54760;47.490;19.030;2022-08-02T15:06:50;2.58;;;1.10;;
67979;SDS011;54760;47.490;19.030;2022-08-02T15:09:15;2.05;;;1.10;;
67979;SDS011;54760;47.490;19.030;2022-08-02T15:11:41;2.35;;;1.10;;
67979;SDS011;54760;47.490;19.030;2022-08-02T15:14:06;2.05;;;1.02;;
67979;SDS011;54760;47.490;19.030;2022-08-02T15:16:31;4.32;;;1.25;;
67979;SDS011;54760;47.490;19.030;2022-08-02T15:19:02;4.75;;;1.27;;
67979;SDS011;54760;47.490;19.030;2022-08-02T15:21:29;1.50;;;1.10;;
67979;SDS011;54760;47.490;19.030;2022-08-02T15:23:54;3.05;;;1.60;;